Stations météo

réclame
Mon MeteoGroup
Humain, Belgique (6472): Température de l'air & dewpoint: 20.05.2018 23:00:00 - 26.05.2018 23:00:00 (CEST)Humain, Belgique (6472): Vitesse du vent & gusts: 20.05.2018 23:00:00 - 26.05.2018 23:00:00 (CEST)Humain, Belgique (6472): Direction du vent: 20.05.2018 23:00:00 - 26.05.2018 23:00:00 (CEST)Humain, Belgique (6472): reduced air pressure: 20.05.2018 23:00:00 - 26.05.2018 23:00:00 (CEST)Humain, Belgique (6472): Ensoleillement: 20.05.2018 23:00:00 - 26.05.2018 23:00:00 (CEST)Humain, Belgique (6472): Quantités de précipitations: 20.05.2018 23:00:00 - 26.05.2018 23:00:00 (CEST)
Date & Time tt [°C] td [°C] ff [km/h] ff [knt] fx [km/h] fx [knt] dd ppp [hPa] sd [min] rr [mm]
26.05.2018 23:00:00 20,8 13,9 9 5 13 7 ESE 1018,9 0 0,0
26.05.2018 22:00:00 21,3 14,5 10 5 20 11 E 1018,1 0 0,0
26.05.2018 21:00:00 22,6 15,3 13 7 16 8 E 1017,8 41 0,0
26.05.2018 20:00:00 24,5 14,7 7 4 16 9 SE 1017,8 60 0,0
26.05.2018 19:00:00 26,2 14,9 8 4 14 8 SE 1017,8 60 0,0
26.05.2018 18:00:00 26,4 15,7 10 5 18 10 S 1018,0 60 0,0
26.05.2018 17:00:00 27,0 13,9 9 5 22 12 S 1018,0 60 0,0
26.05.2018 16:00:00 26,8 14,5 9 5 24 13 S 1018,3 60 0,0
26.05.2018 15:00:00 26,3 14,9 12 6 24 13 SSE 1018,6 54 0,0
26.05.2018 14:00:00 25,7 14,9 13 7 25 13 ESE 1019,1 59 0,0
26.05.2018 13:00:00 24,8 13,8 16 9 24 13 E 1018,8 60 0,0
26.05.2018 12:00:00 24,0 14,9 16 8 23 13 E 1018,7 60 0,0
26.05.2018 11:00:00 22,1 15,4 14 8 22 12 E 1018,9 60 0,0
26.05.2018 10:00:00 19,3 16,2 9 5 14 7 NNE 1019,2 60 0,0
26.05.2018 09:00:00 17,8 14,6 8 5 15 8 NE 1019,4 60 0,0
26.05.2018 08:00:00 15,2 13,6 5 3 13 7 NNE 1019,6 27 0,0
26.05.2018 07:00:00 14,3 12,1 7 4 16 9 N 1019,5 26 0,0
26.05.2018 06:00:00 14,9 12,0 11 6 19 10 ENE 1019,0 0 0,0
26.05.2018 05:00:00 14,9 11,8 8 5 16 9 E 1019,0 0 0,0
26.05.2018 04:00:00 15,0 12,6 12 6 14 8 E 1019,0 0 0,0
26.05.2018 03:00:00 15,1 12,6 8 4 13 7 ENE 1019,1 0 0,0
26.05.2018 02:00:00 16,3 12,9 11 6 14 8 E 1019,2 0 0,0
26.05.2018 01:00:00 17,0 13,1 10 5 14 8 ENE 1019,0 0 0,0
26.05.2018 00:00:00 17,9 13,9 9 5 14 8 ENE 1018,9 0 0,0
25.05.2018 23:00:00 19,4 13,4 13 7 17 9 NE 1018,5 0 0,0
25.05.2018 22:00:00 20,0 12,3 11 6 16 8 NE 1018,3 3 0,0
25.05.2018 21:00:00 20,2 13,6 10 5 14 8 NE 1017,7 27 0,0
25.05.2018 20:00:00 21,4 14,2 7 4 14 7 NNE 1017,6 24 0,0
25.05.2018 19:00:00 21,5 13,7 10 5 19 10 NE 1017,3 18 0,0
25.05.2018 18:00:00 22,1 14,6 7 4 11 6 ENE 1017,6 17 0,0
25.05.2018 17:00:00 23,5 13,0 4 2 10 5 NNW 1017,7 31 0,0
25.05.2018 16:00:00 22,9 12,7 7 4 17 9 E 1017,9 51 0,0
25.05.2018 15:00:00 23,5 12,0 4 2 10 5 E 1017,8 54 0,0
25.05.2018 14:00:00 22,7 12,0 7 4 13 7 E 1017,9 60 0,0
25.05.2018 13:00:00 22,3 12,6 4 2 8 5 E 1018,2 60 0,0
25.05.2018 12:00:00 21,4 12,8 4 2 9 5 SSW 1018,2 60 0,0
25.05.2018 11:00:00 19,9 14,4 4 2 7 4 NW 1018,5 60 0,0
25.05.2018 10:00:00 18,4 15,0 4 2 7 4 E 1018,7 60 0,0
25.05.2018 09:00:00 16,1 15,1 4 2 6 4 SSE 1018,8 60 0,0
25.05.2018 08:00:00 14,2 13,6 4 2 5 3 NNE 1018,7 60 0,0
25.05.2018 07:00:00 13,1 12,6 4 2 10 5 ENE 1018,7 37 0,0
25.05.2018 06:00:00 12,1 11,7 9 5 13 7 ESE 1018,5 0 0,0
25.05.2018 05:00:00 11,9 11,5 10 5 13 7 E 1018,4 0 0,0
25.05.2018 04:00:00 11,8 11,2 12 6 14 8 E 1018,4 0 0,0
25.05.2018 03:00:00 12,7 11,8 9 5 10 5 E 1018,3 0 0,0
25.05.2018 02:00:00 13,9 12,9 0 0 7 4 N 1018,3 0 0,0
25.05.2018 01:00:00 13,8 12,6 4 2 5 3 ENE 1018,5 0 0,0
25.05.2018 00:00:00 14,7 13,3 4 2 8 5 S 1018,0 0 0,0
24.05.2018 23:00:00 13,9 12,5 6 3 11 6 ESE 1018,2 0 0,0
24.05.2018 22:00:00 15,0 13,4 7 4 9 5 SSE 1017,9 4 0,0
24.05.2018 21:00:00 15,5 13,6 10 5 16 9 ESE 1017,4 41 0,0
24.05.2018 20:00:00 16,7 14,9 14 8 22 12 E 1017,2 26 1,5
24.05.2018 19:00:00 16,4 15,2 13 7 19 11 ENE 1017,2 2 5,3
24.05.2018 18:00:00 17,3 14,9 16 9 24 13 NNE 1016,7 26 0,0
24.05.2018 17:00:00 19,0 16,3 6 4 11 6 N 1016,5 25 0,0
24.05.2018 16:00:00 20,0 16,9 10 5 14 8 N 1016,7 60 1,5
24.05.2018 15:00:00 18,8 15,9 7 4 11 6 WNW 1017,2 12 1,4
24.05.2018 14:00:00 19,1 15,6 4 2 11 6 NW 1017,6 18 4,0
24.05.2018 13:00:00 19,4 14,5 4 2 11 6 SSW 1018,0 30 0,0
24.05.2018 12:00:00 19,1 14,2 4 2 16 9 S 1018,4 56 0,0
24.05.2018 11:00:00 17,2 15,2 5 3 12 6 ESE 1018,5 30 0,0
24.05.2018 10:00:00 15,4 14,2 9 5 11 6 NNE 1019,3 0 0,0
24.05.2018 09:00:00 14,5 13,9 4 2 8 4 E 1019,0 0 0,0
24.05.2018 08:00:00 - - - - - - - - - -
24.05.2018 07:00:00 - - - - - - - - - -
24.05.2018 06:00:00 - - - - - - - - - -
24.05.2018 05:00:00 - - - - - - - - - -
24.05.2018 04:00:00 - - - - - - - - - -
24.05.2018 03:00:00 - - - - - - - - - -
24.05.2018 02:00:00 - - - - - - - - - -
24.05.2018 01:00:00 - - - - - - - - - -
24.05.2018 00:00:00 - - - - - - - - - -
23.05.2018 23:00:00 - - - - - - - - 0 -
23.05.2018 22:00:00 14,3 13,3 16 9 40 22 S 1021,8 0 1,0
23.05.2018 21:00:00 14,3 13,2 11 6 14 8 SSW 1019,8 - -
23.05.2018 20:00:00 16,2 14,9 7 4 9 5 NNE 1019,3 0 0,1
23.05.2018 19:00:00 15,9 14,3 4 2 13 7 NNW 1019,1 0 0,9
23.05.2018 18:00:00 15,5 13,8 5 3 11 6 N 1019,3 0 0,8
23.05.2018 17:00:00 15,5 12,0 8 4 42 23 ESE 1019,5 3 1,0
23.05.2018 16:00:00 19,6 15,9 13 7 23 12 N 1018,6 43 0,0
23.05.2018 15:00:00 17,0 15,4 14 8 19 10 NNE 1019,2 0 0,7
23.05.2018 14:00:00 17,0 14,2 11 6 14 8 NE 1019,7 0 0,0
23.05.2018 13:00:00 16,8 15,3 6 3 16 8 NNE 1019,6 10 0,0
23.05.2018 12:00:00 14,5 14,0 10 5 16 9 NE 1019,7 0 0,0
23.05.2018 11:00:00 14,1 13,7 8 4 12 7 NNE 1019,8 1 0,0
23.05.2018 10:00:00 13,2 12,9 9 5 13 7 NNE 1019,6 0 0,0
23.05.2018 09:00:00 13,3 12,9 4 2 10 5 NE 1019,0 0 0,0
23.05.2018 08:00:00 13,1 12,7 7 4 11 6 NE 1018,6 0 0,0
23.05.2018 07:00:00 12,6 12,2 5 3 10 5 ENE 1018,1 0 0,0
23.05.2018 06:00:00 12,6 12,2 8 4 10 6 NE 1017,7 0 0,0
23.05.2018 05:00:00 12,5 12,0 5 3 7 4 E 1017,3 0 0,0
23.05.2018 04:00:00 12,6 12,1 4 2 8 4 N 1017,2 0 0,0
23.05.2018 03:00:00 13,1 12,4 4 2 9 5 NNE 1016,8 0 0,0
23.05.2018 02:00:00 13,3 12,6 7 4 13 7 NNE 1016,6 0 0,0
23.05.2018 01:00:00 13,6 12,8 8 4 13 7 NNE 1016,8 0 0,6
23.05.2018 00:00:00 13,5 12,5 4 2 9 5 SE 1016,8 0 0,2
22.05.2018 23:00:00 13,5 12,5 6 3 10 5 ENE 1016,2 0 0,8
22.05.2018 22:00:00 13,5 11,9 8 4 12 7 S 1015,7 0 1,7
22.05.2018 21:00:00 14,4 11,9 4 2 16 9 WSW 1015,6 0 0,8
22.05.2018 20:00:00 15,6 11,7 7 4 12 7 W 1014,6 0 0,0
22.05.2018 19:00:00 16,7 11,1 11 6 26 14 NNE 1014,0 7 0,0
22.05.2018 18:00:00 16,7 11,6 16 9 32 17 NE 1013,8 35 0,0
22.05.2018 17:00:00 18,7 12,6 23 12 31 17 NNE 1013,2 41 0,0
22.05.2018 16:00:00 21,2 10,9 12 7 21 11 W 1012,7 38 0,0
22.05.2018 15:00:00 21,2 11,5 15 8 28 15 W 1012,5 35 0,0
22.05.2018 14:00:00 20,8 11,9 11 6 23 12 W 1012,7 36 0,0
22.05.2018 13:00:00 21,1 10,9 7 4 19 10 WSW 1012,7 49 0,0
22.05.2018 12:00:00 20,7 12,5 4 2 16 8 WSW 1012,7 60 0,0
22.05.2018 11:00:00 18,7 12,2 6 3 10 5 WNW 1013,2 60 0,0
22.05.2018 10:00:00 15,9 11,9 4 2 8 5 SW 1013,6 60 0,0
22.05.2018 09:00:00 14,2 11,5 4 2 6 3 SSW 1013,5 60 0,0
22.05.2018 08:00:00 12,7 11,3 7 4 8 5 SSE 1013,3 59 0,0
22.05.2018 07:00:00 10,7 9,5 8 4 10 6 E 1013,2 2 0,0
22.05.2018 06:00:00 9,9 8,4 5 3 13 7 SSE 1013,1 0 0,0
22.05.2018 05:00:00 11,8 10,1 4 2 8 5 SSW 1012,9 0 0,0
22.05.2018 04:00:00 11,6 9,8 6 3 8 5 E 1012,8 0 0,0
22.05.2018 03:00:00 11,5 9,6 6 3 10 5 ESE 1013,2 0 0,0
22.05.2018 02:00:00 11,6 9,5 7 4 9 5 SSE 1013,1 0 0,0
22.05.2018 01:00:00 12,9 9,8 6 3 12 6 SE 1013,2 0 0,0
22.05.2018 00:00:00 15,0 10,3 5 3 13 7 NNE 1013,1 0 0,0
21.05.2018 23:00:00 15,2 10,3 5 3 9 5 SW 1013,0 0 0,0
21.05.2018 22:00:00 16,8 10,5 7 4 11 6 E 1012,6 0 0,0
21.05.2018 21:00:00 17,4 10,2 5 3 8 5 NW 1012,3 0 0,0
21.05.2018 20:00:00 18,5 10,4 0 0 8 4 N 1012,0 0 0,0
21.05.2018 19:00:00 19,6 9,6 6 4 29 15 SE 1011,9 37 0,0
21.05.2018 18:00:00 21,5 10,6 10 6 19 11 S 1011,7 38 0,0
21.05.2018 17:00:00 21,2 11,0 11 6 23 13 ESE 1012,2 37 0,0
21.05.2018 16:00:00 21,7 9,7 16 8 24 13 SSE 1012,7 45 0,0
21.05.2018 15:00:00 20,6 11,0 13 7 23 12 ESE 1013,2 40 0,0
21.05.2018 14:00:00 20,5 10,7 14 8 29 15 E 1013,5 51 0,0
21.05.2018 13:00:00 20,1 10,7 13 7 26 14 E 1013,9 60 0,0
21.05.2018 12:00:00 18,7 9,9 12 6 24 13 E 1014,4 60 0,0
21.05.2018 11:00:00 17,5 9,6 19 11 32 17 E 1014,9 51 0,0
21.05.2018 10:00:00 15,2 9,3 19 10 26 14 E 1015,5 48 0,0
21.05.2018 09:00:00 13,4 11,4 13 7 22 12 NNE 1016,2 50 0,0
21.05.2018 08:00:00 11,8 10,5 18 10 29 16 NNE 1016,4 6 0,0
21.05.2018 07:00:00 11,4 10,4 18 10 29 15 NE 1016,6 0 0,0
21.05.2018 06:00:00 11,1 10,4 15 8 24 13 NE 1017,0 0 0,0
21.05.2018 05:00:00 11,4 10,5 12 7 - - NNE 1017,5 0 0,8
21.05.2018 04:00:00 11,5 10,1 7 4 10 6 NE 1018,6 0 0,2
21.05.2018 03:00:00 12,0 10,2 9 5 16 9 NE 1018,4 0 0,0
21.05.2018 02:00:00 12,0 10,2 11 6 33 18 E 1019,4 0 0,2
21.05.2018 01:00:00 12,5 9,6 23 13 40 21 E 1020,1 0 0,1
21.05.2018 00:00:00 13,2 9,2 28 15 47 25 E 1019,7 0 0,0
20.05.2018 23:00:00 13,8 9,3 22 12 34 18 E 1019,7 0 0,0

tt = Température de l'air
td = dewpoint
ff = Vitesse du vent
fx = gusts
dd = Direction du vent
ppp = reduced air pressure
sd = Ensoleillement
rr = Quantités de précipitations

stations d'obs. à proximité